createdAt,value
2022-11-22T07:13:57.304Z,6.91
2022-11-22T07:16:28.415Z,6.49
2022-11-22T07:18:55.931Z,6.35
2022-11-22T07:21:25.547Z,5.35
2022-11-22T07:23:54.973Z,5.71
2022-11-22T07:26:24.237Z,6.26
2022-11-22T07:28:52.730Z,6.33
2022-11-22T07:31:21.512Z,6.00
2022-11-22T07:33:49.262Z,6.47
2022-11-22T07:36:21.650Z,6.50
2022-11-22T07:38:49.799Z,6.37
2022-11-22T07:41:18.839Z,5.84
2022-11-22T07:43:47.140Z,6.24
2022-11-22T07:46:23.295Z,6.23
2022-11-22T07:48:51.085Z,6.95
2022-11-22T07:51:19.923Z,7.39
2022-11-22T07:53:48.478Z,7.09
2022-11-22T07:56:16.696Z,7.14
2022-11-22T07:58:44.628Z,7.97
2022-11-22T08:01:14.894Z,8.50
2022-11-22T08:03:43.452Z,11.26
2022-11-22T08:06:12.497Z,11.69
2022-11-22T08:08:40.178Z,11.49
2022-11-22T08:11:08.594Z,13.15
2022-11-22T08:13:36.466Z,13.13
2022-11-22T08:16:07.433Z,15.30
2022-11-22T08:18:35.758Z,11.76
2022-11-22T08:21:04.100Z,10.05
2022-11-22T08:23:43.343Z,12.57
2022-11-22T08:26:13.260Z,12.20
2022-11-22T08:28:41.954Z,13.75
2022-11-22T08:31:14.663Z,13.69
2022-11-22T08:33:42.457Z,10.68
2022-11-22T08:36:10.492Z,9.16
2022-11-22T08:38:38.245Z,8.81
2022-11-22T08:41:06.707Z,9.56
2022-11-22T08:43:34.678Z,11.31
2022-11-22T08:46:03.016Z,12.61
2022-11-22T08:48:32.770Z,12.42
2022-11-22T08:51:02.878Z,11.65
2022-11-22T08:53:32.479Z,11.60
2022-11-22T08:56:01.593Z,13.87
2022-11-22T08:58:31.130Z,12.02
2022-11-22T09:01:08.182Z,13.78
2022-11-22T09:03:36.347Z,13.62
2022-11-22T09:09:03.263Z,12.21
2022-11-22T09:11:36.528Z,12.46
2022-11-22T09:14:04.001Z,11.34
2022-11-22T09:16:31.522Z,12.56
2022-11-22T09:18:59.439Z,11.62
2022-11-22T09:21:27.011Z,10.72
2022-11-22T09:23:54.682Z,11.38
2022-11-22T09:26:25.166Z,11.95
2022-11-22T09:28:55.474Z,13.71
2022-11-22T09:31:23.542Z,12.87
2022-11-22T09:33:51.039Z,10.16
2022-11-22T09:36:21.783Z,10.64
2022-11-22T09:38:50.720Z,11.88
2022-11-22T09:41:42.896Z,10.64
2022-11-22T09:44:35.929Z,9.55
2022-11-22T09:47:18.667Z,10.05
2022-11-22T09:49:55.457Z,10.54
2022-11-22T09:52:30.201Z,11.36
2022-11-22T09:55:02.143Z,12.68
2022-11-22T09:57:42.729Z,13.34
2022-11-22T10:00:31.308Z,12.30
2022-11-22T10:03:24.666Z,14.27
2022-11-22T10:05:54.374Z,16.05
2022-11-22T10:08:59.039Z,17.73
2022-11-22T10:11:43.176Z,16.96
2022-11-22T10:14:29.988Z,16.52
2022-11-22T10:17:35.196Z,16.06
2022-11-22T10:20:05.959Z,15.06
2022-11-22T10:22:35.274Z,15.11
2022-11-22T10:25:10.290Z,17.12
2022-11-22T10:27:41.224Z,17.35
2022-11-22T10:30:20.879Z,17.14
2022-11-22T10:32:55.152Z,18.15
2022-11-22T10:35:30.695Z,14.63
2022-11-22T10:38:03.554Z,15.38
2022-11-22T10:40:51.114Z,15.10
2022-11-22T10:43:39.983Z,11.91
2022-11-22T10:46:32.007Z,10.73
2022-11-22T10:49:12.877Z,10.78
2022-11-22T10:52:27.935Z,10.62
2022-11-22T10:55:23.080Z,11.19
2022-11-22T10:57:56.315Z,10.72
2022-11-22T11:00:26.120Z,9.74
2022-11-22T11:02:56.446Z,8.69
2022-11-22T11:05:33.203Z,9.26
2022-11-22T11:08:22.015Z,9.58
2022-11-22T11:10:49.154Z,9.30
2022-11-22T11:13:29.177Z,8.85
2022-11-22T11:15:59.475Z,9.55
2022-11-22T11:18:32.734Z,8.93
2022-11-22T11:21:00.270Z,9.54
2022-11-22T11:23:27.834Z,9.78
2022-11-22T11:25:55.304Z,10.20
2022-11-22T11:28:24.095Z,10.09
2022-11-22T11:30:58.737Z,9.26
2022-11-22T11:33:35.267Z,9.56
2022-11-22T11:36:04.742Z,9.41
2022-11-22T11:38:54.070Z,9.17
2022-11-22T11:41:37.513Z,9.61
2022-11-22T11:44:29.454Z,9.27
2022-11-22T11:46:58.359Z,9.06
2022-11-22T11:49:31.407Z,9.27
2022-11-22T11:52:03.641Z,9.18
2022-11-22T11:54:48.197Z,9.29
2022-11-22T11:57:20.124Z,10.13
2022-11-22T11:59:51.239Z,10.51
2022-11-22T12:02:26.878Z,10.39
2022-11-22T12:05:14.002Z,9.77
2022-11-22T12:07:46.273Z,9.28
2022-11-22T12:10:38.928Z,8.65
2022-11-22T12:13:27.431Z,8.47
2022-11-22T12:16:22.287Z,8.09
2022-11-22T12:19:14.040Z,8.07
2022-11-22T12:21:58.945Z,8.25
2022-11-22T12:24:52.346Z,8.90
2022-11-22T12:27:23.375Z,8.99
2022-11-22T12:29:52.999Z,8.75
2022-11-22T12:32:45.589Z,8.56
2022-11-22T12:35:19.891Z,8.17
2022-11-22T12:38:14.214Z,8.77
2022-11-22T12:40:45.888Z,9.12
2022-11-22T12:43:24.520Z,8.76
2022-11-22T12:46:16.753Z,8.04
2022-11-22T12:48:49.678Z,8.30
2022-11-22T12:51:54.037Z,8.19
2022-11-22T12:54:38.041Z,7.76
2022-11-22T12:57:23.041Z,7.51
2022-11-22T13:00:02.760Z,7.70
2022-11-22T13:02:53.268Z,7.74
2022-11-22T13:05:29.006Z,7.37
2022-11-22T13:08:05.824Z,7.53
2022-11-22T13:10:51.849Z,7.29
2022-11-22T13:13:23.766Z,7.47
2022-11-22T13:15:53.130Z,7.30
2022-11-22T13:18:26.075Z,7.22
2022-11-22T13:21:14.442Z,6.94
2022-11-22T13:24:00.676Z,6.87
2022-11-22T13:27:03.417Z,7.17
2022-11-22T13:29:33.639Z,7.23
2022-11-22T13:32:05.678Z,7.00
2022-11-22T13:34:36.332Z,6.80
2022-11-22T13:37:13.466Z,6.63
2022-11-22T13:39:50.658Z,6.47
